Time;durP1;ratioP1;P1;durP2;ratioP2;P2;SDS_P1;SDS_P2;PMS_P1;PMS_P2;Temp;Humidity;BMP_temperature;BMP_pressure;BME280_temperature;BME280_humidity;BME280_pressure;Samples;Min_cycle;Max_cycle;Signal;HPM_P1;HPM_P2
2022/07/26 00:02:15;;;;;;;3.03;1.00;;;26.60;47.20;;;;;;5017756;28;20105;-56
2022/07/26 00:04:41;;;;;;;5.72;1.13;;;26.60;47.30;;;;;;5016956;28;20040;-52
2022/07/26 00:07:07;;;;;;;3.75;1.00;;;26.60;47.30;;;;;;5014330;28;20108;-53
2022/07/26 00:09:33;;;;;;;3.95;0.98;;;26.60;47.40;;;;;;5017392;28;20056;-53
2022/07/26 00:11:58;;;;;;;3.38;1.10;;;26.50;47.30;;;;;;5016611;28;20033;-49
2022/07/26 00:14:25;;;;;;;3.63;1.00;;;26.50;47.30;;;;;;5017354;28;20049;-54
2022/07/26 00:16:50;;;;;;;2.65;0.90;;;26.50;47.30;;;;;;5016311;28;20026;-54
2022/07/26 00:19:17;;;;;;;2.53;0.80;;;26.50;47.40;;;;;;5016631;28;20100;-56
2022/07/26 00:21:42;;;;;;;4.05;1.27;;;26.50;47.40;;;;;;5015460;28;20131;-56
2022/07/26 00:24:09;;;;;;;4.65;1.83;;;26.50;47.40;;;;;;5016052;28;20069;-54
2022/07/26 00:26:35;;;;;;;3.13;1.10;;;26.50;47.40;;;;;;5016366;28;20342;-52
2022/07/26 00:29:03;;;;;;;5.07;1.33;;;26.50;47.50;;;;;;5016546;28;20034;-54
2022/07/26 00:31:29;;;;;;;2.88;1.10;;;26.50;47.50;;;;;;5016613;28;20112;-53
2022/07/26 00:33:55;;;;;;;7.30;1.95;;;26.50;47.50;;;;;;5015916;28;20349;-52
2022/07/26 00:36:21;;;;;;;4.38;1.23;;;26.50;47.60;;;;;;5016448;28;20032;-50
2022/07/26 00:38:47;;;;;;;4.97;1.70;;;26.50;47.60;;;;;;5016210;28;20468;-53
2022/07/26 00:41:13;;;;;;;5.03;1.27;;;26.50;47.60;;;;;;5016678;28;20081;-48
2022/07/26 00:44:01;;;;;;;4.22;1.20;;;26.40;47.50;;;;;;5016553;28;20125;-53
2022/07/26 00:46:27;;;;;;;5.57;1.20;;;26.50;47.70;;;;;;5016588;28;20026;-56
2022/07/26 00:48:53;;;;;;;2.95;1.10;;;26.40;47.60;;;;;;5014748;28;20030;-56
2022/07/26 00:51:19;;;;;;;6.32;1.52;;;26.40;47.60;;;;;;5016272;28;20112;-50
2022/07/26 00:53:46;;;;;;;3.72;1.20;;;26.40;47.70;;;;;;5016302;28;20064;-56
2022/07/26 00:56:14;;;;;;;3.10;1.20;;;26.40;47.70;;;;;;5016682;28;20029;-54
2022/07/26 00:58:41;;;;;;;4.57;1.20;;;26.40;47.70;;;;;;5015819;28;20099;-53
2022/07/26 01:01:07;;;;;;;2.83;1.05;;;26.40;47.70;;;;;;5014780;28;20041;-52
2022/07/26 01:03:33;;;;;;;2.80;1.15;;;26.40;47.80;;;;;;5016601;28;20029;-54
2022/07/26 01:05:59;;;;;;;3.97;1.27;;;26.40;47.80;;;;;;5016025;28;20033;-54
2022/07/26 01:08:25;;;;;;;4.65;0.80;;;26.40;47.80;;;;;;5015240;28;20030;-53
2022/07/26 01:10:52;;;;;;;3.67;1.20;;;26.40;47.80;;;;;;5015871;28;20030;-52
2022/07/26 01:13:21;;;;;;;3.10;0.90;;;26.40;47.90;;;;;;5015032;28;20032;-52
2022/07/26 01:15:48;;;;;;;4.60;1.45;;;26.40;47.90;;;;;;5014979;28;20468;-53
2022/07/26 01:18:13;;;;;;;3.05;1.27;;;26.30;47.80;;;;;;5015162;28;20410;-51
2022/07/26 01:20:40;;;;;;;2.60;1.10;;;26.30;47.80;;;;;;5014803;28;20141;-56
2022/07/26 01:23:07;;;;;;;3.63;1.13;;;26.30;47.80;;;;;;5015425;28;20433;-50
2022/07/26 01:25:35;;;;;;;2.78;0.80;;;26.30;47.90;;;;;;5015012;28;20021;-54
2022/07/26 01:28:02;;;;;;;3.15;0.85;;;26.30;47.90;;;;;;5015931;28;20036;-50
2022/07/26 01:30:28;;;;;;;2.85;1.00;;;26.30;47.90;;;;;;5014866;28;20033;-51
2022/07/26 01:32:54;;;;;;;2.70;1.00;;;26.30;47.90;;;;;;5015590;28;20088;-53
2022/07/26 01:35:20;;;;;;;5.43;1.10;;;26.30;47.90;;;;;;5007702;28;20131;-51
2022/07/26 01:37:46;;;;;;;3.33;0.85;;;26.30;47.90;;;;;;5013095;28;20038;-51
2022/07/26 01:40:13;;;;;;;4.65;1.10;;;26.30;47.90;;;;;;5015870;28;20037;-55
2022/07/26 01:42:39;;;;;;;4.63;1.05;;;26.30;48.00;;;;;;5014878;28;20041;-55
2022/07/26 01:45:09;;;;;;;3.05;0.80;;;26.30;48.00;;;;;;5015357;28;20041;-51
2022/07/26 01:47:36;;;;;;;4.03;1.10;;;26.30;48.00;;;;;;5012094;28;20602;-55
2022/07/26 01:50:04;;;;;;;2.92;1.08;;;26.30;48.00;;;;;;5015561;28;20113;-53
2022/07/26 01:52:30;;;;;;;3.83;1.23;;;26.30;48.00;;;;;;5015513;28;20461;-50
2022/07/26 01:54:56;;;;;;;4.25;1.02;;;26.20;48.00;;;;;;5015783;28;20092;-55
2022/07/26 01:57:22;;;;;;;3.17;0.90;;;26.20;48.00;;;;;;5015428;28;20063;-52
2022/07/26 01:59:47;;;;;;;5.05;1.33;;;26.20;48.10;;;;;;5012657;28;20538;-48
2022/07/26 02:02:13;;;;;;;2.10;0.80;;;26.20;48.00;;;;;;5015652;28;20084;-55
2022/07/26 02:04:57;;;;;;;4.45;1.25;;;26.30;48.10;;;;;;5015706;28;20164;-51
2022/07/26 02:07:28;;;;;;;3.42;1.00;;;26.20;48.10;;;;;;5014710;28;20039;-54
2022/07/26 02:09:54;;;;;;;3.03;0.90;;;26.20;48.10;;;;;;5015251;28;20034;-54
2022/07/26 02:12:20;;;;;;;3.55;0.90;;;26.20;48.10;;;;;;5014580;28;20029;-53
2022/07/26 02:14:46;;;;;;;3.72;0.93;;;26.20;48.20;;;;;;5013616;28;20389;-55
2022/07/26 02:17:11;;;;;;;4.75;1.25;;;26.20;48.20;;;;;;5014885;28;20026;-52
2022/07/26 02:19:37;;;;;;;6.68;1.10;;;26.20;48.20;;;;;;5014745;28;20354;-56
2022/07/26 02:22:04;;;;;;;4.90;1.10;;;26.20;48.30;;;;;;5014764;28;20114;-55
2022/07/26 02:24:30;;;;;;;4.65;1.00;;;26.20;48.30;;;;;;5013372;28;20064;-51
2022/07/26 02:26:57;;;;;;;3.10;0.88;;;26.20;48.40;;;;;;5015448;28;20420;-55
2022/07/26 02:29:23;;;;;;;3.72;1.02;;;26.10;48.30;;;;;;5004383;28;20034;-54
2022/07/26 02:31:49;;;;;;;4.18;1.30;;;26.20;48.40;;;;;;5014897;28;20038;-54
2022/07/26 02:34:15;;;;;;;3.35;1.10;;;26.10;48.40;;;;;;5015085;28;20040;-56
2022/07/26 02:36:41;;;;;;;5.57;1.20;;;26.10;48.50;;;;;;5012759;28;20087;-54
2022/07/26 02:39:06;;;;;;;3.65;1.17;;;26.10;48.50;;;;;;5014700;28;20030;-52
2022/07/26 02:41:32;;;;;;;3.88;0.95;;;26.10;48.50;;;;;;5015052;28;20448;-54
2022/07/26 02:43:58;;;;;;;2.85;0.95;;;26.10;48.60;;;;;;5014331;28;20026;-50
2022/07/26 02:46:24;;;;;;;3.35;0.85;;;26.10;48.70;;;;;;5013323;28;20026;-49
2022/07/26 02:48:49;;;;;;;3.80;1.10;;;26.10;48.80;;;;;;5013943;28;20091;-55
2022/07/26 02:51:15;;;;;;;3.40;1.00;;;26.10;48.80;;;;;;5015299;28;20038;-55
2022/07/26 02:53:41;;;;;;;3.17;1.10;;;26.10;48.90;;;;;;5017027;28;20054;-54
2022/07/26 02:56:07;;;;;;;4.88;1.15;;;26.10;49.00;;;;;;5018666;28;20360;-51
2022/07/26 02:58:33;;;;;;;3.35;1.00;;;26.10;49.10;;;;;;5016821;28;20032;-53
2022/07/26 03:00:59;;;;;;;3.28;1.05;;;26.10;49.10;;;;;;5018109;28;20041;-53
2022/07/26 03:03:25;;;;;;;4.03;1.20;;;26.10;49.10;;;;;;5018998;28;20345;-51
2022/07/26 03:05:51;;;;;;;2.92;0.90;;;26.00;49.20;;;;;;5018909;28;20101;-54
2022/07/26 03:08:17;;;;;;;4.38;1.10;;;26.10;49.40;;;;;;5017609;28;20057;-52
2022/07/26 03:10:43;;;;;;;2.63;1.15;;;26.00;49.40;;;;;;5016587;28;20350;-55
2022/07/26 03:13:09;;;;;;;3.47;0.90;;;26.00;49.50;;;;;;5018074;28;20045;-55
2022/07/26 03:15:35;;;;;;;2.28;0.90;;;26.00;49.50;;;;;;5018536;28;20034;-53
2022/07/26 03:18:01;;;;;;;4.10;1.05;;;26.00;49.60;;;;;;5017975;28;20029;-55
2022/07/26 03:20:26;;;;;;;3.10;1.02;;;26.00;49.70;;;;;;5017740;28;20034;-52
2022/07/26 03:22:52;;;;;;;3.80;1.02;;;26.00;49.80;;;;;;5016115;28;20045;-51
2022/07/26 03:25:18;;;;;;;5.68;1.15;;;26.00;49.90;;;;;;5017615;28;20048;-49
2022/07/26 03:27:44;;;;;;;2.53;1.17;;;26.00;50.00;;;;;;5017827;28;20058;-51
2022/07/26 03:30:10;;;;;;;3.10;1.10;;;26.00;50.10;;;;;;5017183;28;20500;-52
2022/07/26 03:32:37;;;;;;;2.50;1.00;;;26.00;50.10;;;;;;5015777;28;20360;-51
2022/07/26 03:35:03;;;;;;;4.00;1.05;;;26.00;50.20;;;;;;4998431;28;20027;-56
2022/07/26 03:37:29;;;;;;;1.55;0.63;;;26.00;50.20;;;;;;5000620;28;20112;-54
2022/07/26 03:39:55;;;;;;;2.70;0.95;;;26.00;50.30;;;;;;5018068;28;20030;-54
2022/07/26 03:42:21;;;;;;;2.15;1.00;;;26.00;50.40;;;;;;5018028;28;20099;-54
2022/07/26 03:44:47;;;;;;;2.55;0.90;;;26.00;51.10;;;;;;5015986;28;20038;-56
2022/07/26 03:47:12;;;;;;;3.03;1.13;;;26.00;51.20;;;;;;5017601;28;20445;-53
2022/07/26 03:49:38;;;;;;;3.92;1.13;;;26.00;50.60;;;;;;5017121;28;20034;-53
2022/07/26 03:52:05;;;;;;;3.30;0.98;;;26.00;50.60;;;;;;5016082;28;20396;-53
2022/07/26 03:54:31;;;;;;;2.33;0.80;;;26.00;50.80;;;;;;5017137;28;20469;-52
2022/07/26 03:56:56;;;;;;;3.40;1.00;;;26.00;50.80;;;;;;5015767;28;20036;-55
2022/07/26 03:59:24;;;;;;;4.53;1.38;;;26.00;50.90;;;;;;5017152;28;20034;-56
2022/07/26 04:01:50;;;;;;;3.10;1.05;;;26.00;50.90;;;;;;5016200;28;20037;-54
2022/07/26 04:04:19;;;;;;;2.65;1.10;;;26.00;51.00;;;;;;5015916;28;20026;-55
2022/07/26 04:06:46;;;;;;;2.28;0.90;;;26.00;51.10;;;;;;5016838;28;20520;-52
2022/07/26 04:09:13;;;;;;;2.70;0.90;;;25.90;51.10;;;;;;5014754;28;20356;-51
2022/07/26 04:11:39;;;;;;;4.68;1.00;;;26.00;51.20;;;;;;5017505;28;20065;-54
2022/07/26 04:14:05;;;;;;;2.55;0.85;;;25.90;51.10;;;;;;5017585;28;20049;-55
2022/07/26 04:16:31;;;;;;;2.40;0.93;;;25.90;51.20;;;;;;5017367;28;20149;-52
2022/07/26 04:18:57;;;;;;;4.30;1.15;;;25.90;51.30;;;;;;5015630;28;20037;-51
2022/07/26 04:21:23;;;;;;;4.20;1.20;;;25.90;51.30;;;;;;5002539;28;20041;-53
2022/07/26 04:23:49;;;;;;;2.72;1.20;;;25.90;51.30;;;;;;5017226;28;20116;-53
2022/07/26 04:26:15;;;;;;;3.05;1.10;;;25.90;51.30;;;;;;5015753;28;20517;-54
2022/07/26 04:28:41;;;;;;;3.22;1.20;;;25.90;51.40;;;;;;5015370;28;20104;-50
2022/07/26 04:31:07;;;;;;;1.83;0.73;;;25.90;51.40;;;;;;5017200;28;20026;-54
2022/07/26 04:33:33;;;;;;;3.08;1.02;;;25.90;51.50;;;;;;5014642;28;20458;-55
2022/07/26 04:36:00;;;;;;;3.83;1.23;;;25.90;51.50;;;;;;5015399;28;20104;-53
2022/07/26 04:38:26;;;;;;;2.95;1.23;;;25.90;51.50;;;;;;5016659;28;20103;-52
2022/07/26 04:40:52;;;;;;;3.38;1.10;;;25.90;51.50;;;;;;5016322;28;20030;-56
2022/07/26 04:43:18;;;;;;;2.60;0.98;;;25.90;51.50;;;;;;5016153;28;20372;-49
2022/07/26 04:45:44;;;;;;;4.40;1.00;;;25.90;51.50;;;;;;5016672;28;20350;-54
2022/07/26 04:48:11;;;;;;;3.15;0.95;;;25.90;51.60;;;;;;5014793;28;20021;-53
2022/07/26 04:50:36;;;;;;;4.30;1.20;;;25.90;51.60;;;;;;5015168;28;20041;-56
2022/07/26 04:53:04;;;;;;;2.13;0.90;;;25.90;51.60;;;;;;5016218;28;20453;-54
2022/07/26 04:55:29;;;;;;;3.05;1.30;;;25.80;51.60;;;;;;5016859;28;20042;-57
2022/07/26 04:57:55;;;;;;;4.05;1.20;;;25.90;51.60;;;;;;5014013;28;20084;-52
2022/07/26 05:00:23;;;;;;;3.03;0.93;;;25.80;51.60;;;;;;5016184;28;20045;-50
2022/07/26 05:02:59;;;;;;;2.58;1.20;;;25.90;51.60;;;;;;5016226;28;20446;-53
2022/07/26 05:05:28;;;;;;;2.58;1.00;;;25.90;51.70;;;;;;5015571;28;20049;-54
2022/07/26 05:07:55;;;;;;;2.47;0.88;;;25.90;51.70;;;;;;5014982;28;20072;-54
2022/07/26 05:10:28;;;;;;;4.85;1.63;;;25.90;51.70;;;;;;5014965;28;20290;-53
2022/07/26 05:12:54;;;;;;;2.43;0.90;;;25.80;51.60;;;;;;4996181;28;20453;-56
2022/07/26 05:15:20;;;;;;;2.30;0.88;;;25.80;51.60;;;;;;4996347;28;20026;-53
2022/07/26 05:17:46;;;;;;;2.92;0.90;;;25.80;51.60;;;;;;5001487;28;20030;-55
2022/07/26 05:20:15;;;;;;;11.32;1.52;;;25.80;51.60;;;;;;5013587;28;20029;-53
2022/07/26 05:22:41;;;;;;;3.55;1.20;;;25.90;51.70;;;;;;5016161;28;20092;-53
2022/07/26 05:25:07;;;;;;;3.35;1.08;;;25.80;51.60;;;;;;5006292;28;20030;-56
2022/07/26 05:27:33;;;;;;;2.30;0.70;;;25.80;51.60;;;;;;5012879;28;20396;-55
2022/07/26 05:29:59;;;;;;;3.90;0.80;;;25.80;51.60;;;;;;5013859;28;20122;-54
2022/07/26 05:32:26;;;;;;;3.83;0.95;;;25.80;51.60;;;;;;5016201;28;20037;-55
2022/07/26 05:34:52;;;;;;;2.65;1.05;;;25.80;51.60;;;;;;5014873;28;20030;-56
2022/07/26 05:37:19;;;;;;;2.72;1.00;;;25.80;51.60;;;;;;5016093;28;20034;-55
2022/07/26 05:39:44;;;;;;;2.90;1.00;;;25.80;51.60;;;;;;5014803;28;20033;-53
2022/07/26 05:42:10;;;;;;;3.50;0.90;;;25.80;51.60;;;;;;5015214;28;20038;-56
2022/07/26 05:44:36;;;;;;;3.33;1.23;;;25.80;51.60;;;;;;5015776;28;20069;-55
2022/07/26 05:47:02;;;;;;;2.38;1.02;;;25.80;51.60;;;;;;5015671;28;20076;-54
2022/07/26 05:49:28;;;;;;;3.53;1.10;;;25.80;51.60;;;;;;5014434;28;20042;-50
2022/07/26 05:51:54;;;;;;;3.58;1.00;;;25.80;51.60;;;;;;5014559;28;20037;-54
2022/07/26 05:54:20;;;;;;;4.25;1.00;;;25.80;51.60;;;;;;5015272;28;20085;-56
2022/07/26 05:56:46;;;;;;;2.83;0.98;;;25.80;51.60;;;;;;5015099;28;20432;-56
2022/07/26 05:59:12;;;;;;;2.30;0.90;;;25.80;51.60;;;;;;5014269;28;20452;-53
2022/07/26 06:01:38;;;;;;;2.78;0.70;;;25.80;51.60;;;;;;5014372;28;20042;-56
2022/07/26 06:04:04;;;;;;;2.45;0.80;;;25.80;51.50;;;;;;5013863;28;20034;-56
2022/07/26 06:06:30;;;;;;;3.08;0.77;;;25.80;51.50;;;;;;5015528;28;20034;-52
2022/07/26 06:08:56;;;;;;;2.65;0.70;;;25.80;51.50;;;;;;5014484;28;20049;-54
2022/07/26 06:11:21;;;;;;;2.10;0.70;;;25.80;51.40;;;;;;5015149;28;20044;-54
2022/07/26 06:13:47;;;;;;;3.33;0.70;;;25.80;51.40;;;;;;5014177;28;20457;-56
2022/07/26 06:16:13;;;;;;;2.03;0.80;;;25.80;51.40;;;;;;5013300;28;20109;-54
2022/07/26 06:18:39;;;;;;;2.40;0.75;;;25.80;51.30;;;;;;5014087;28;20045;-57
2022/07/26 06:21:05;;;;;;;2.85;0.73;;;25.80;51.40;;;;;;5013412;28;20033;-54
2022/07/26 06:23:31;;;;;;;2.05;0.70;;;25.80;51.40;;;;;;5015229;28;20041;-55
2022/07/26 06:25:56;;;;;;;2.90;0.90;;;25.80;51.40;;;;;;5015220;28;20033;-55
2022/07/26 06:28:23;;;;;;;2.53;0.80;;;25.80;51.30;;;;;;5013561;28;20034;-53
2022/07/26 06:30:48;;;;;;;1.77;0.70;;;25.80;51.30;;;;;;5011102;28;20457;-50
2022/07/26 06:33:14;;;;;;;1.50;0.50;;;25.80;51.30;;;;;;5013425;28;20030;-54
2022/07/26 06:35:41;;;;;;;1.23;0.55;;;25.80;51.30;;;;;;5013015;28;20061;-52
2022/07/26 06:38:07;;;;;;;1.85;0.60;;;25.80;51.20;;;;;;5014967;28;20038;-55
2022/07/26 06:40:34;;;;;;;1.92;0.80;;;25.80;51.20;;;;;;5013181;28;20105;-55
2022/07/26 06:43:01;;;;;;;1.63;0.70;;;25.80;51.10;;;;;;5012210;28;20103;-54
2022/07/26 06:45:27;;;;;;;2.03;0.88;;;25.80;51.10;;;;;;5013463;28;20033;-51
2022/07/26 06:47:54;;;;;;;2.65;1.17;;;25.90;51.20;;;;;;5013995;28;21747;-55
2022/07/26 06:50:20;;;;;;;2.10;0.50;;;25.80;51.10;;;;;;5014828;28;20033;-55
2022/07/26 06:52:46;;;;;;;2.25;0.60;;;25.80;51.10;;;;;;5012924;28;20452;-54
2022/07/26 06:55:12;;;;;;;3.22;0.68;;;25.80;51.10;;;;;;5012542;28;20063;-56
2022/07/26 06:57:38;;;;;;;1.08;0.50;;;25.80;51.00;;;;;;5013019;28;20067;-55
2022/07/26 07:00:06;;;;;;;1.65;0.65;;;25.80;50.90;;;;;;5008516;28;20481;-56
2022/07/26 07:02:32;;;;;;;1.73;0.70;;;25.90;50.90;;;;;;5006990;28;20030;-53
2022/07/26 07:04:58;;;;;;;2.08;0.57;;;25.90;50.80;;;;;;5014840;28;20459;-50
2022/07/26 07:07:24;;;;;;;1.63;0.52;;;25.90;50.70;;;;;;5014393;28;20115;-56
2022/07/26 07:09:50;;;;;;;1.35;0.63;;;25.90;50.70;;;;;;5007567;28;20049;-54
2022/07/26 07:12:16;;;;;;;0.95;0.40;;;25.90;50.60;;;;;;5008556;28;20053;-52
2022/07/26 07:14:42;;;;;;;1.02;0.47;;;25.90;50.50;;;;;;5010137;28;20060;-54
2022/07/26 07:17:08;;;;;;;1.15;0.50;;;25.90;50.40;;;;;;5007868;28;20033;-53
2022/07/26 07:19:35;;;;;;;1.70;0.60;;;25.90;50.40;;;;;;5007242;28;20018;-56
2022/07/26 07:22:02;;;;;;;1.75;0.50;;;25.90;50.50;;;;;;5008157;28;20388;-54
2022/07/26 07:24:27;;;;;;;1.20;0.45;;;26.00;50.50;;;;;;5009672;28;20030;-53
2022/07/26 07:26:53;;;;;;;0.98;0.40;;;26.00;50.50;;;;;;5008818;28;20148;-56
2022/07/26 07:29:19;;;;;;;2.95;0.50;;;26.00;50.50;;;;;;5006330;28;20033;-56
2022/07/26 07:31:46;;;;;;;1.83;0.68;;;26.00;50.50;;;;;;5009044;28;20030;-52
2022/07/26 07:34:16;;;;;;;0.45;0.30;;;26.00;50.50;;;;;;5009635;28;20061;-56
2022/07/26 07:36:43;;;;;;;0.93;0.47;;;26.00;50.50;;;;;;5011102;28;20329;-55
2022/07/26 07:39:09;;;;;;;1.52;0.70;;;26.00;50.50;;;;;;5009960;28;20037;-55
2022/07/26 07:41:36;;;;;;;1.27;0.45;;;26.00;50.50;;;;;;5013814;28;20074;-56
2022/07/26 07:44:04;;;;;;;1.27;0.40;;;26.00;50.50;;;;;;5009985;28;20040;-55
2022/07/26 07:46:30;;;;;;;0.40;0.20;;;26.00;50.50;;;;;;5013693;28;20022;-56
2022/07/26 07:48:58;;;;;;;0.85;0.40;;;26.00;50.50;;;;;;5017470;28;20033;-56
2022/07/26 07:51:25;;;;;;;1.10;0.50;;;26.00;50.50;;;;;;5015981;28;20042;-53
2022/07/26 07:53:51;;;;;;;1.70;0.50;;;26.10;50.70;;;;;;5011778;28;20079;-52
2022/07/26 07:56:17;;;;;;;1.02;0.43;;;26.10;50.70;;;;;;5012383;28;20038;-54
2022/07/26 07:58:43;;;;;;;0.90;0.40;;;26.10;50.70;;;;;;5013078;28;20022;-57
2022/07/26 08:01:09;;;;;;;1.13;0.50;;;26.10;50.70;;;;;;5013121;28;20365;-54
2022/07/26 08:03:35;;;;;;;1.27;0.52;;;26.10;50.80;;;;;;5017289;28;20041;-54
2022/07/26 08:06:02;;;;;;;3.88;0.82;;;26.10;50.80;;;;;;5014861;28;20125;-58
2022/07/26 08:08:28;;;;;;;3.92;0.47;;;26.00;50.80;;;;;;5013745;28;20119;-60
2022/07/26 08:10:54;;;;;;;1.05;0.55;;;26.10;51.00;;;;;;5014031;28;20066;-56
2022/07/26 08:13:21;;;;;;;1.40;0.70;;;26.10;51.00;;;;;;5012268;28;20026;-57
2022/07/26 08:15:47;;;;;;;0.90;0.40;;;26.10;51.00;;;;;;5017049;28;20445;-54
2022/07/26 08:18:13;;;;;;;1.95;0.63;;;26.20;51.00;;;;;;5017056;28;20038;-57
2022/07/26 08:20:39;;;;;;;3.40;0.43;;;26.20;50.80;;;;;;5016967;28;20104;-54
2022/07/26 08:23:05;;;;;;;0.80;0.38;;;26.30;50.60;;;;;;5016935;28;20041;-56
2022/07/26 08:25:30;;;;;;;1.45;0.30;;;26.40;50.50;;;;;;5015501;28;20101;-53
2022/07/26 08:27:56;;;;;;;1.88;0.55;;;26.50;50.40;;;;;;5015805;28;20026;-56
2022/07/26 08:30:22;;;;;;;0.93;0.47;;;26.50;50.20;;;;;;5004874;28;20087;-53
2022/07/26 08:32:48;;;;;;;1.88;0.50;;;26.60;50.00;;;;;;5014660;28;20350;-54
2022/07/26 08:35:13;;;;;;;0.82;0.38;;;26.60;49.80;;;;;;5015179;28;20041;-56
2022/07/26 08:37:39;;;;;;;0.88;0.40;;;26.70;49.60;;;;;;5014500;28;20064;-53
2022/07/26 08:40:06;;;;;;;0.75;0.40;;;26.80;49.60;;;;;;5015152;28;20026;-53
2022/07/26 08:42:32;;;;;;;0.80;0.30;;;26.80;49.50;;;;;;5013485;28;20037;-55
2022/07/26 08:44:59;;;;;;;0.73;0.40;;;26.90;49.40;;;;;;5014757;28;20038;-53
2022/07/26 08:47:24;;;;;;;1.73;0.40;;;26.90;49.20;;;;;;5014689;28;20048;-52
2022/07/26 08:49:50;;;;;;;1.42;0.50;;;27.00;49.10;;;;;;5014323;28;20453;-54
2022/07/26 08:52:16;;;;;;;2.17;0.30;;;27.00;49.00;;;;;;5014580;28;20397;-56
2022/07/26 08:54:50;;;;;;;0.70;0.30;;;27.00;48.90;;;;;;5014153;28;20053;-55
2022/07/26 08:57:16;;;;;;;;;;;27.10;48.90;;;;;;5013496;28;20030;-54
2022/07/26 08:59:42;;;;;;;1.20;0.40;;;27.10;48.80;;;;;;5014708;28;19920;-55
2022/07/26 09:02:11;;;;;;;0.75;0.30;;;27.10;48.70;;;;;;5014051;28;20217;-54
2022/07/26 09:04:43;;;;;;;1.08;0.30;;;27.20;48.70;;;;;;5014047;28;20087;-55
2022/07/26 09:07:12;;;;;;;0.70;0.30;;;27.20;48.60;;;;;;5010427;28;20028;-54
2022/07/26 09:09:59;;;;;;;0.40;0.30;;;27.20;48.50;;;;;;5012277;28;20025;-56
2022/07/26 09:12:26;;;;;;;0.38;0.30;;;27.30;48.60;;;;;;5013166;28;20033;-54
2022/07/26 09:14:52;;;;;;;0.80;0.30;;;27.30;48.50;;;;;;5014384;28;20042;-55
2022/07/26 09:17:22;;;;;;;0.47;0.25;;;27.30;48.40;;;;;;5013328;28;20415;-56
2022/07/26 09:20:14;;;;;;;1.55;0.50;;;27.30;48.30;;;;;;5013316;28;20033;-56
2022/07/26 09:23:02;;;;;;;0.38;0.20;;;27.30;48.20;;;;;;5013525;28;20365;-55
2022/07/26 09:25:31;;;;;;;1.00;0.40;;;27.40;48.10;;;;;;5012008;28;20038;-55
2022/07/26 09:27:58;;;;;;;0.43;0.30;;;27.40;48.10;;;;;;5014100;28;20053;-55
2022/07/26 09:30:30;;;;;;;0.70;0.30;;;27.40;48.00;;;;;;5013981;28;20029;-56
2022/07/26 09:33:02;;;;;;;0.70;0.28;;;27.40;48.00;;;;;;5014116;28;20117;-52
2022/07/26 09:35:30;;;;;;;0.93;0.30;;;27.40;47.90;;;;;;5012482;28;20072;-53
2022/07/26 09:37:56;;;;;;;0.32;0.20;;;27.40;47.90;;;;;;5014044;28;20057;-58
2022/07/26 09:40:22;;;;;;;0.73;0.20;;;27.40;47.70;;;;;;5013108;28;20479;-56
2022/07/26 09:42:58;;;;;;;0.80;0.30;;;27.50;47.70;;;;;;5014078;28;20329;-56
2022/07/26 09:45:26;;;;;;;0.93;0.20;;;27.50;47.60;;;;;;5012808;28;20076;-56
2022/07/26 09:47:52;;;;;;;0.40;0.20;;;27.50;47.40;;;;;;5012524;28;20112;-56
2022/07/26 09:50:24;;;;;;;0.60;0.20;;;27.50;47.40;;;;;;5014717;28;20406;-55
2022/07/26 09:53:00;;;;;;;0.75;0.25;;;27.60;47.50;;;;;;5013021;28;20026;-58
2022/07/26 09:55:26;;;;;;;0.68;0.30;;;27.50;47.40;;;;;;5012192;28;20042;-55
2022/07/26 09:57:52;;;;;;;0.40;0.20;;;27.60;47.40;;;;;;5014045;28;20038;-57
2022/07/26 10:00:18;;;;;;;1.90;0.28;;;27.60;47.30;;;;;;5012836;28;20056;-58
2022/07/26 10:02:44;;;;;;;0.60;0.30;;;27.70;47.30;;;;;;5012185;28;20022;-54
2022/07/26 10:05:10;;;;;;;1.38;0.20;;;27.70;47.20;;;;;;5013086;28;20345;-58
2022/07/26 10:07:36;;;;;;;3.28;0.30;;;27.70;47.20;;;;;;5012291;28;20038;-56
2022/07/26 10:10:10;;;;;;;2.20;0.20;;;27.80;47.80;;;;;;5012192;28;20108;-57
2022/07/26 10:12:36;;;;;;;1.88;0.40;;;27.80;48.10;;;;;;5009888;28;20478;-56
2022/07/26 10:15:02;;;;;;;2.33;0.30;;;27.80;48.00;;;;;;5010221;28;20072;-59
2022/07/26 10:17:28;;;;;;;3.83;0.40;;;27.90;48.00;;;;;;5011203;28;20036;-57
2022/07/26 10:20:00;;;;;;;1.33;0.40;;;27.80;48.10;;;;;;5011421;28;20025;-58
2022/07/26 10:22:39;;;;;;;2.25;0.40;;;27.90;47.30;;;;;;5011888;28;20133;-59
2022/07/26 10:25:17;;;;;;;0.88;0.40;;;27.80;47.20;;;;;;5015170;28;20025;-57
2022/07/26 10:27:55;;;;;;;0.65;0.30;;;27.80;47.10;;;;;;5007099;28;20034;-58
2022/07/26 10:30:26;;;;;;;0.85;0.30;;;27.80;47.10;;;;;;4995273;28;20445;-59
2022/07/26 10:33:14;;;;;;;1.25;0.40;;;27.80;47.00;;;;;;5010478;28;20052;-58
2022/07/26 10:35:42;;;;;;;1.08;0.30;;;27.80;47.00;;;;;;5010253;28;20108;-56
2022/07/26 10:38:12;;;;;;;1.23;0.60;;;27.80;47.00;;;;;;5014400;28;20163;-54
2022/07/26 10:40:54;;;;;;;1.83;0.30;;;27.90;46.90;;;;;;5005304;28;20057;-58
2022/07/26 10:43:21;;;;;;;0.50;0.20;;;27.90;46.80;;;;;;5000949;28;20069;-54
2022/07/26 10:45:47;;;;;;;1.10;0.40;;;28.00;47.30;;;;;;5011217;28;20356;-56
2022/07/26 10:48:23;;;;;;;1.00;0.43;;;28.00;46.50;;;;;;5011795;28;20030;-56
2022/07/26 10:50:51;;;;;;;1.85;0.43;;;28.00;46.50;;;;;;5010316;28;20022;-54
2022/07/26 10:53:26;;;;;;;1.67;0.30;;;28.10;47.30;;;;;;5015347;28;20022;-57
2022/07/26 10:55:56;;;;;;;1.10;0.38;;;28.00;46.80;;;;;;5013564;28;20026;-60
2022/07/26 10:58:23;;;;;;;1.58;0.55;;;28.00;46.80;;;;;;5010720;28;20037;-56
2022/07/26 11:01:00;;;;;;;1.25;0.40;;;28.00;46.80;;;;;;5009179;28;20042;-62
2022/07/26 11:03:42;;;;;;;5.15;0.73;;;28.00;46.90;;;;;;5014678;28;20033;-59
2022/07/26 11:06:18;;;;;;;2.55;0.40;;;28.00;47.00;;;;;;5008722;28;20428;-59
2022/07/26 11:08:46;;;;;;;2.47;0.50;;;28.00;47.00;;;;;;5006344;28;20034;-58
2022/07/26 11:11:25;;;;;;;1.73;0.30;;;28.00;47.00;;;;;;5009817;28;20034;-57
2022/07/26 11:13:51;;;;;;;1.55;0.35;;;28.00;47.00;;;;;;5009426;28;20437;-57
2022/07/26 11:16:17;;;;;;;1.17;0.70;;;28.00;46.60;;;;;;5018362;28;20116;-52
2022/07/26 11:18:42;;;;;;;2.25;0.77;;;28.00;47.20;;;;;;5014159;28;20096;-57
2022/07/26 11:21:14;;;;;;;1.95;0.60;;;28.00;47.20;;;;;;5014010;28;20045;-53
2022/07/26 11:23:43;;;;;;;1.33;0.63;;;28.10;47.30;;;;;;5014751;28;20048;-57
2022/07/26 11:26:14;;;;;;;1.27;0.40;;;28.10;47.20;;;;;;5012397;28;20493;-53
2022/07/26 11:28:58;;;;;;;1.45;0.70;;;28.10;47.20;;;;;;5012968;28;20061;-53
2022/07/26 11:31:35;;;;;;;3.08;0.43;;;28.10;47.00;;;;;;5014168;28;20048;-53
2022/07/26 11:34:02;;;;;;;0.82;0.55;;;28.20;47.00;;;;;;5014218;28;20045;-53
2022/07/26 11:36:38;;;;;;;1.73;0.40;;;28.20;46.90;;;;;;5011300;28;20034;-53
2022/07/26 11:39:07;;;;;;;0.88;0.38;;;28.30;46.90;;;;;;5010230;28;20041;-53
2022/07/26 11:41:35;;;;;;;1.15;0.50;;;28.30;46.90;;;;;;5013594;28;20081;-55
2022/07/26 11:44:02;;;;;;;0.93;0.30;;;28.30;46.80;;;;;;5013690;28;20030;-53
2022/07/26 11:46:37;;;;;;;0.73;0.30;;;28.30;46.80;;;;;;5010493;28;20040;-55
2022/07/26 11:49:11;;;;;;;3.17;0.40;;;28.30;46.80;;;;;;5012701;28;20108;-50
2022/07/26 11:51:38;;;;;;;1.85;0.50;;;28.30;46.70;;;;;;5011450;28;20034;-55
2022/07/26 11:54:04;;;;;;;2.20;0.60;;;28.30;46.80;;;;;;5013318;28;20046;-50
2022/07/26 11:56:31;;;;;;;0.90;0.32;;;28.30;46.80;;;;;;5010016;28;20103;-55
2022/07/26 11:58:57;;;;;;;1.27;0.57;;;28.20;46.70;;;;;;5012376;28;21794;-54
2022/07/26 12:01:25;;;;;;;1.25;0.50;;;28.20;46.60;;;;;;5015579;28;20400;-52
2022/07/26 12:03:53;;;;;;;0.70;0.30;;;28.20;46.60;;;;;;5012856;28;20026;-55
2022/07/26 12:06:25;;;;;;;1.15;0.40;;;28.20;46.60;;;;;;5009819;28;20113;-52
2022/07/26 12:08:52;;;;;;;2.53;0.32;;;28.20;46.60;;;;;;5012594;28;20362;-58
2022/07/26 12:11:19;;;;;;;2.70;0.40;;;28.20;46.60;;;;;;5011821;28;20022;-55
2022/07/26 12:13:48;;;;;;;2.95;0.60;;;28.20;46.60;;;;;;5014436;28;20105;-53
2022/07/26 12:16:37;;;;;;;3.35;0.60;;;28.20;46.70;;;;;;5012294;28;20030;-57
2022/07/26 12:19:08;;;;;;;2.10;0.50;;;28.10;46.70;;;;;;5010492;28;21459;-57
2022/07/26 12:22:07;;;;;;;5.40;0.60;;;28.10;46.80;;;;;;5012202;28;20054;-55
2022/07/26 12:24:39;;;;;;;1.40;0.60;;;28.10;46.80;;;;;;5010814;28;20033;-57
2022/07/26 12:27:08;;;;;;;1.55;0.30;;;28.10;46.80;;;;;;5012151;28;20836;-55
2022/07/26 12:29:36;;;;;;;2.22;0.60;;;28.10;46.80;;;;;;5015807;28;20033;-58
2022/07/26 12:32:03;;;;;;;0.93;0.35;;;28.10;46.70;;;;;;5011550;28;20049;-57
2022/07/26 12:34:29;;;;;;;2.85;0.47;;;28.10;46.60;;;;;;5009520;28;20037;-59
2022/07/26 12:37:09;;;;;;;3.80;0.50;;;28.20;46.60;;;;;;5012547;28;20034;-61
2022/07/26 12:39:36;;;;;;;1.67;0.40;;;28.20;46.50;;;;;;5010515;28;20092;-59
2022/07/26 12:42:26;;;;;;;2.58;0.40;;;28.20;46.30;;;;;;5003221;28;20437;-59
2022/07/26 12:44:54;;;;;;;3.58;0.70;;;28.20;46.20;;;;;;5008185;28;20075;-59
2022/07/26 12:47:20;;;;;;;1.33;0.57;;;28.30;46.10;;;;;;5007468;28;20088;-60
2022/07/26 12:49:46;;;;;;;1.95;0.47;;;28.30;46.00;;;;;;5009225;28;20029;-58
2022/07/26 12:52:20;;;;;;;1.98;0.68;;;28.30;45.90;;;;;;5006492;28;20046;-57